Kingman, KS

8:29 PM CST on February 10, 2016 (GMT -0600)
NonFedAWOS | | Change Station
CLOSE
Current Station
Personal Weather Station
Location: Kingman, KS
Elevation: 1604 ft
Nearby Weather Stations

Elev 1604 ft 37.67 °N, 98.12 °W | Updated 6 days ago

Clear
Clear
44 °F
Feels Like 39 °F
N
10
Wind Variable Wind from NNW
Gusts 18 mph

Today
High -- | Low -- °F
--% Chance of Precip.
Yesterday
High -- | Low -- °F
Precip. -- in
Pressure 29.98 in
Visibility 10.0 miles
Clouds Clear
Windchill 39 °F
Dew Point 31 °F
Humidity 58%
Rainfall in
Snow Depth Not available.
7:28 AM 6:05 PM
Waxing Crescent, 8% visible
METAR KPTT 110215Z AUTO 32011KT 10SM CLR 07/M04 A2998 RMK AO2 T00701038
Pressure 29.98 in
Visibility 10.0 miles
Clouds Clear
Windchill 39 °F
Dew Point 31 °F
Humidity 58%
Rainfall in
Snow Depth Not available.
7:28 AM 6:05 PM
Waxing Crescent, 8% visible
METAR KPTT 110215Z AUTO 32011KT 10SM CLR 07/M04 A2998 RMK AO2 T00701038

10-Day Weather Forecast

Almanac

Astronomy

Feb. 10, 2016 Rise Set
Actual Time
Civil Twilight
Nautical Twilight
Astronomical Twilight
Moon
Length of Visible Light
Length of Day
Tomorrow will be .
, % of the Moon is Illuminated

Today's Extremes

State Highs State Lows

Community

WunderPhotos

Upload Photos

1,891,984 photos uploaded!

WunderBlog® & News

Nearby

Air Quality

  Air Quality AQ Index Pollutant
Not available.

Snow Depth

Station Depth Elevation

Earthquake Activity

City Distance Mag. Time & Date
Minimum magnitude displayed is 2.5.

Coastal Water Temperatures

Place Temperature

Stations

Nearby Weather Stations

Station Location Temp. Windchill Dew Point Humidity Wind Precip. Elev Updated Type
                   

Watches & Warnings

There are currently no watches in effect.